Time;durP1;ratioP1;P1;durP2;ratioP2;P2;SDS_P1;SDS_P2;PMS_P1;PMS_P2;Temp;Humidity;BMP_temperature;BMP_pressure;BME280_temperature;BME280_humidity;BME280_pressure;Samples;Min_cycle;Max_cycle;Signal;HPM_P1;HPM_P2
2023/03/29 00:00:44;;;;;;;;;;;5.80;99.90;;;;;;5095192;28;20010;-70
2023/03/29 00:03:11;;;;;;;;;;;5.80;99.90;;;;;;5078325;28;19930;-70
2023/03/29 00:05:37;;;;;;;;;;;5.80;99.90;;;;;;5094715;28;20580;-70
2023/03/29 00:08:03;;;;;;;;;;;5.80;99.90;;;;;;5113239;28;20126;-69
2023/03/29 00:10:30;;;;;;;;;;;5.80;99.90;;;;;;5112577;28;20013;-69
2023/03/29 00:12:56;;;;;;;;;;;5.80;99.90;;;;;;5094673;28;19972;-70
2023/03/29 00:15:21;;;;;;;;;;;5.80;99.90;;;;;;5112922;28;19928;-71
2023/03/29 00:17:47;;;;;;;;;;;5.70;99.90;;;;;;5112967;28;20014;-70
2023/03/29 00:20:12;;;;;;;;;;;5.70;99.90;;;;;;5113098;28;19928;-70
2023/03/29 00:22:40;;;;;;;;;;;5.70;99.90;;;;;;5094790;28;20010;-71
2023/03/29 00:25:07;;;;;;;;;;;5.70;99.90;;;;;;5113160;28;20000;-70
2023/03/29 00:27:32;;;;;;;;;;;5.70;99.90;;;;;;5113191;28;20331;-70
2023/03/29 00:29:58;;;;;;;;;;;5.70;99.90;;;;;;5113251;28;19924;-70
2023/03/29 00:32:24;;;;;;;;;;;5.70;99.90;;;;;;5094164;28;19923;-70
2023/03/29 00:34:50;;;;;;;;;;;5.70;99.90;;;;;;5113076;28;19930;-70
2023/03/29 00:37:17;;;;;;;;;;;5.70;99.90;;;;;;5113016;28;19923;-69
2023/03/29 00:39:44;;;;;;;;;;;5.70;99.90;;;;;;5094341;28;19939;-69
2023/03/29 00:42:13;;;;;;;;;;;5.70;99.90;;;;;;5112059;28;19924;-70
2023/03/29 00:44:58;;;;;;;;;;;5.70;99.90;;;;;;5094209;28;20022;-70
2023/03/29 00:47:26;;;;;;;;;;;5.70;99.90;;;;;;5094466;28;19989;-71
2023/03/29 00:49:53;;;;;;;;;;;5.70;99.90;;;;;;5094435;28;20028;-71
2023/03/29 00:52:20;;;;;;;;;;;5.70;99.90;;;;;;5094422;28;19924;-70
2023/03/29 00:54:47;;;;;;;;;;;5.70;99.90;;;;;;5112288;28;20325;-70
2023/03/29 00:57:14;;;;;;;;;;;5.70;99.90;;;;;;5094615;28;20350;-71
2023/03/29 00:59:40;;;;;;;;;;;5.70;99.90;;;;;;5094225;28;20022;-69
2023/03/29 01:02:07;;;;;;;;;;;5.70;99.90;;;;;;5114842;28;19967;-70
2023/03/29 01:04:41;;;;;;;;;;;5.70;99.90;;;;;;5116417;28;19993;-70
2023/03/29 01:07:24;;;;;;;;;;;5.70;99.90;;;;;;5116821;28;19923;-70
2023/03/29 01:09:57;;;;;;;;;;;5.80;99.90;;;;;;5116497;28;19934;-70
2023/03/29 01:12:26;;;;;;;;;;;5.70;99.90;;;;;;5116574;28;19930;-70
2023/03/29 01:14:57;;;;;;;;;;;5.70;99.90;;;;;;5116440;28;19927;-69
2023/03/29 01:17:24;;;;;;;;;;;5.70;99.90;;;;;;5098165;28;20389;-69
2023/03/29 01:19:56;;;;;;;;;;;5.70;99.90;;;;;;5097995;28;19923;-70
2023/03/29 01:22:29;;;;;;;;;;;5.70;99.90;;;;;;5116438;28;20289;-70
2023/03/29 01:24:55;;;;;;;;;;;5.70;99.90;;;;;;5098384;28;19924;-70
2023/03/29 01:27:39;;;;;;;;;;;5.70;99.90;;;;;;5098183;28;19931;-70
2023/03/29 01:30:11;;;;;;;;;;;5.70;99.90;;;;;;5098052;28;19924;-70
2023/03/29 01:32:49;;;;;;;;;;;5.70;99.90;;;;;;5097426;28;19985;-70
2023/03/29 01:35:21;;;;;;;;;;;5.70;99.90;;;;;;5081299;28;19946;-70
2023/03/29 01:37:51;;;;;;;;;;;5.70;99.90;;;;;;5115680;28;19931;-70
2023/03/29 01:40:17;;;;;;;;;;;5.70;99.90;;;;;;5115752;28;19984;-70
2023/03/29 01:43:01;;;;;;;;;;;5.70;99.90;;;;;;5080900;28;19959;-70
2023/03/29 01:45:35;;;;;;;;;;;5.70;99.90;;;;;;5080720;28;20070;-70
2023/03/29 01:48:07;;;;;;;;;;;5.70;99.90;;;;;;5098380;28;20022;-70
2023/03/29 01:50:48;;;;;;;;;;;5.70;99.90;;;;;;5116098;28;20332;-71
2023/03/29 01:53:40;;;;;;;;;;;5.70;99.90;;;;;;5115499;28;19931;-71
2023/03/29 01:56:13;;;;;;;;;;;5.70;99.90;;;;;;5092833;28;19924;-70
2023/03/29 01:58:47;;;;;;;;;;;5.70;99.90;;;;;;5115580;28;19928;-70
2023/03/29 02:01:16;;;;;;;;;;;5.70;99.90;;;;;;5115772;28;19930;-71
2023/03/29 02:03:46;;;;;;;;;;;5.70;99.90;;;;;;5115193;28;19924;-70
2023/03/29 02:06:14;;;;;;;;;;;5.70;99.90;;;;;;5097821;28;20022;-69
2023/03/29 02:08:40;;;;;;;;;;;5.70;99.90;;;;;;5115296;28;19924;-70
2023/03/29 02:11:06;;;;;;;;;;;5.70;99.90;;;;;;5115475;28;19923;-70
2023/03/29 02:13:32;;;;;;;;;;;5.70;99.90;;;;;;5114029;28;19931;-68
2023/03/29 02:16:01;;;;;;;;;;;5.70;99.90;;;;;;5114959;28;19931;-69
2023/03/29 02:18:28;;;;;;;;;;;5.70;99.90;;;;;;5097681;28;20013;-70
2023/03/29 02:20:56;;;;;;;;;;;5.70;99.90;;;;;;5096918;28;19934;-70
2023/03/29 02:23:34;;;;;;;;;;;5.60;99.90;;;;;;5097297;28;19931;-70
2023/03/29 02:26:00;;;;;;;;;;;5.70;99.90;;;;;;5115035;28;20060;-70
2023/03/29 02:28:26;;;;;;;;;;;5.70;99.90;;;;;;5115174;28;20284;-69
2023/03/29 02:31:07;;;;;;;;;;;5.10;99.90;;;;;;5114537;28;19924;-70
2023/03/29 02:33:40;;;;;;;;;;;5.60;99.90;;;;;;5115101;28;19930;-69
2023/03/29 02:36:13;;;;;;;;;;;5.60;99.90;;;;;;5115297;28;19930;-70
2023/03/29 02:38:39;;;;;;;;;;;5.60;99.90;;;;;;5096898;28;20014;-70
2023/03/29 02:41:05;;;;;;;;;;;5.70;99.90;;;;;;5114542;28;20014;-69
2023/03/29 02:43:31;;;;;;;;;;;5.70;99.90;;;;;;5096879;28;20014;-69
2023/03/29 02:45:57;;;;;;;;;;;5.70;99.90;;;;;;5078844;28;19924;-70
2023/03/29 02:48:24;;;;;;;;;;;5.70;99.90;;;;;;5096354;28;19934;-69
2023/03/29 02:50:52;;;;;;;;;;;5.70;99.90;;;;;;5096033;28;19974;-69
2023/03/29 02:53:21;;;;;;;;;;;5.70;99.90;;;;;;5096636;28;19996;-69
2023/03/29 02:55:47;;;;;;;;;;;5.70;99.90;;;;;;5114024;28;19982;-70
2023/03/29 02:58:14;;;;;;;;;;;5.70;99.90;;;;;;5096607;28;19971;-70
2023/03/29 03:00:44;;;;;;;;;;;5.70;99.90;;;;;;5096759;28;19924;-69
2023/03/29 03:03:11;;;;;;;;;;;5.70;99.90;;;;;;5114436;28;19931;-70
2023/03/29 03:05:37;;;;;;;;;;;5.70;99.90;;;;;;5114440;28;19935;-69
2023/03/29 03:08:03;;;;;;;;;;;5.70;99.90;;;;;;5114420;28;19935;-70
2023/03/29 03:10:29;;;;;;;;;;;5.70;99.90;;;;;;5114637;28;20382;-70
2023/03/29 03:12:54;;;;;;;;;;;5.70;99.90;;;;;;5079625;28;20094;-70
2023/03/29 03:15:20;;;;;;;;;;;5.70;99.90;;;;;;5096949;28;19957;-71
2023/03/29 03:17:48;;;;;;;;;;;5.70;99.90;;;;;;5114180;28;19969;-70
2023/03/29 03:20:13;;;;;;;;;;;5.70;99.90;;;;;;5114202;28;20315;-70
2023/03/29 03:22:40;;;;;;;;;;;5.70;99.90;;;;;;5096274;28;19924;-70
2023/03/29 03:25:08;;;;;;;;;;;5.70;99.90;;;;;;5095347;28;19934;-70
2023/03/29 03:27:35;;;;;;;;;;;5.80;99.90;;;;;;5114064;28;19924;-70
2023/03/29 03:30:04;;;;;;;;;;;5.70;99.90;;;;;;5095728;28;19927;-69
2023/03/29 03:32:30;;;;;;;;;;;5.80;99.90;;;;;;5113848;28;19924;-69
2023/03/29 03:34:56;;;;;;;;;;;5.70;99.90;;;;;;5113536;28;19930;-70
2023/03/29 03:37:22;;;;;;;;;;;5.70;99.90;;;;;;5095794;28;19981;-69
2023/03/29 03:39:47;;;;;;;;;;;5.70;99.90;;;;;;5095740;28;20036;-69
2023/03/29 03:42:13;;;;;;;;;;;5.70;99.90;;;;;;5095505;28;19931;-69
2023/03/29 03:44:39;;;;;;;;;;;5.70;99.90;;;;;;5113364;28;19924;-70
2023/03/29 03:47:05;;;;;;;;;;;5.70;99.90;;;;;;5094533;28;20391;-70
2023/03/29 03:49:31;;;;;;;;;;;5.70;99.90;;;;;;5095217;28;19923;-70
2023/03/29 03:51:57;;;;;;;;;;;5.70;99.90;;;;;;5113177;28;19931;-70
2023/03/29 03:54:23;;;;;;;;;;;5.70;99.90;;;;;;5113517;28;20396;-69
2023/03/29 03:56:48;;;;;;;;;;;5.70;99.90;;;;;;5113352;28;19964;-69
2023/03/29 03:59:14;;;;;;;;;;;5.70;99.90;;;;;;5112935;28;20336;-69
2023/03/29 04:01:42;;;;;;;;;;;5.70;99.90;;;;;;5113275;28;19978;-69
2023/03/29 04:04:09;;;;;;;;;;;5.70;99.90;;;;;;5112810;28;20456;-70
2023/03/29 04:06:36;;;;;;;;;;;5.80;99.90;;;;;;5095420;28;19923;-70
2023/03/29 04:09:02;;;;;;;;;;;5.80;99.90;;;;;;5112996;28;20325;-69
2023/03/29 04:11:27;;;;;;;;;;;5.80;99.90;;;;;;5094596;28;19924;-70
2023/03/29 04:13:53;;;;;;;;;;;5.80;99.90;;;;;;5113247;28;19931;-70
2023/03/29 04:16:19;;;;;;;;;;;5.80;99.90;;;;;;5112793;28;19969;-70
2023/03/29 04:18:45;;;;;;;;;;;5.80;99.90;;;;;;5095039;28;19976;-70
2023/03/29 04:21:11;;;;;;;;;;;5.80;99.90;;;;;;5112668;28;19923;-70
2023/03/29 04:23:36;;;;;;;;;;;5.80;99.90;;;;;;5094786;28;19924;-70
2023/03/29 04:26:02;;;;;;;;;;;5.80;99.90;;;;;;5112586;28;19934;-70
2023/03/29 04:28:28;;;;;;;;;;;5.70;99.90;;;;;;5112546;28;19924;-70
2023/03/29 04:30:53;;;;;;;;;;;5.80;99.90;;;;;;5112497;28;19928;-69
2023/03/29 04:33:19;;;;;;;;;;;5.80;99.90;;;;;;5094727;28;19920;-69
2023/03/29 04:35:45;;;;;;;;;;;5.80;99.90;;;;;;5077761;28;19924;-70
2023/03/29 04:38:11;;;;;;;;;;;5.80;99.90;;;;;;5112305;28;20285;-71
2023/03/29 04:40:37;;;;;;;;;;;5.80;99.90;;;;;;5094550;28;19931;-70
2023/03/29 04:43:03;;;;;;;;;;;5.80;99.90;;;;;;5112024;28;19928;-70
2023/03/29 04:45:28;;;;;;;;;;;5.80;99.90;;;;;;5094523;28;20273;-70
2023/03/29 04:48:00;;;;;;;;;;;5.80;99.90;;;;;;5112715;28;19931;-70
2023/03/29 04:50:25;;;;;;;;;;;5.80;99.90;;;;;;5112448;28;19923;-69
2023/03/29 04:52:51;;;;;;;;;;;5.80;99.90;;;;;;5112532;28;19924;-70
2023/03/29 04:55:17;;;;;;;;;;;5.80;99.90;;;;;;5112184;28;19927;-70
2023/03/29 04:57:45;;;;;;;;;;;5.80;99.90;;;;;;5112749;28;19974;-70
2023/03/29 05:00:14;;;;;;;;;;;5.80;99.90;;;;;;5112117;28;19923;-70
2023/03/29 05:02:41;;;;;;;;;;;5.80;99.90;;;;;;5112450;28;19924;-70
2023/03/29 05:05:07;;;;;;;;;;;5.90;99.90;;;;;;5094343;28;19946;-69
2023/03/29 05:07:32;;;;;;;;;;;5.90;99.90;;;;;;5094361;28;20414;-69
2023/03/29 05:09:58;;;;;;;;;;;5.90;99.90;;;;;;5112197;28;19924;-69
2023/03/29 05:12:24;;;;;;;;;;;5.90;99.90;;;;;;5111999;28;20502;-70
2023/03/29 05:14:50;;;;;;;;;;;5.90;99.90;;;;;;5094238;28;19931;-70
2023/03/29 05:17:15;;;;;;;;;;;5.90;99.90;;;;;;5094188;28;19980;-69
2023/03/29 05:19:42;;;;;;;;;;;5.80;99.90;;;;;;5112432;28;20265;-70
2023/03/29 05:22:08;;;;;;;;;;;5.90;99.90;;;;;;5077318;28;19924;-70
2023/03/29 05:24:34;;;;;;;;;;;5.80;99.90;;;;;;5111870;28;19923;-70
2023/03/29 05:26:59;;;;;;;;;;;5.90;99.90;;;;;;5112125;28;19945;-70
2023/03/29 05:29:25;;;;;;;;;;;5.90;99.90;;;;;;5111932;28;19924;-70
2023/03/29 05:31:51;;;;;;;;;;;5.90;99.90;;;;;;5111885;28;19924;-71
2023/03/29 05:34:17;;;;;;;;;;;5.90;99.90;;;;;;5093708;28;19927;-70
2023/03/29 05:36:44;;;;;;;;;;;5.90;99.90;;;;;;5112172;28;20073;-69
2023/03/29 05:39:10;;;;;;;;;;;5.90;99.90;;;;;;5112076;28;19924;-70
2023/03/29 05:41:35;;;;;;;;;;;5.90;99.90;;;;;;5077033;28;19930;-69
2023/03/29 05:44:01;;;;;;;;;;;5.90;99.90;;;;;;5093904;28;19967;-70
2023/03/29 05:46:27;;;;;;;;;;;5.90;99.90;;;;;;5111365;28;19923;-69
2023/03/29 05:48:52;;;;;;;;;;;6.00;99.90;;;;;;5115687;28;19928;-69
2023/03/29 05:51:18;;;;;;;;;;;5.90;99.90;;;;;;5097203;28;19924;-72
2023/03/29 05:53:44;;;;;;;;;;;5.90;99.90;;;;;;5115848;28;19946;-70
2023/03/29 05:56:10;;;;;;;;;;;5.90;99.90;;;;;;5115781;28;19981;-70
2023/03/29 05:58:37;;;;;;;;;;;6.00;99.90;;;;;;5115334;28;19924;-70
2023/03/29 06:01:03;;;;;;;;;;;6.00;99.90;;;;;;5097619;28;19928;-70
2023/03/29 06:03:29;;;;;;;;;;;6.00;99.90;;;;;;5115055;28;20387;-70
2023/03/29 06:05:56;;;;;;;;;;;6.00;99.90;;;;;;5097753;28;19970;-70
2023/03/29 06:08:22;;;;;;;;;;;6.00;99.90;;;;;;5115022;28;19980;-71
2023/03/29 06:10:47;;;;;;;;;;;6.00;99.90;;;;;;5115381;28;19924;-71
2023/03/29 06:13:13;;;;;;;;;;;6.00;99.90;;;;;;5115265;28;19931;-70
2023/03/29 06:15:39;;;;;;;;;;;6.00;99.90;;;;;;5097003;28;19931;-70
2023/03/29 06:18:04;;;;;;;;;;;6.00;99.90;;;;;;5080418;28;19924;-71
2023/03/29 06:20:30;;;;;;;;;;;6.10;99.90;;;;;;5096496;28;19947;-71
2023/03/29 06:22:56;;;;;;;;;;;6.00;99.90;;;;;;5115094;28;19924;-70
2023/03/29 06:25:22;;;;;;;;;;;6.10;99.90;;;;;;5114534;28;20023;-68
2023/03/29 06:27:47;;;;;;;;;;;6.10;99.90;;;;;;5080045;28;20397;-70
2023/03/29 06:30:14;;;;;;;;;;;6.10;99.90;;;;;;5115108;28;19931;-71
2023/03/29 06:32:40;;;;;;;;;;;6.10;99.90;;;;;;5096335;28;19970;-70
2023/03/29 06:35:06;;;;;;;;;;;6.20;99.90;;;;;;5096493;28;19924;-70
2023/03/29 06:37:32;;;;;;;;;;;6.10;99.90;;;;;;5114511;28;19934;-69
2023/03/29 06:39:58;;;;;;;;;;;6.10;99.90;;;;;;5114795;28;19924;-68
2023/03/29 06:42:24;;;;;;;;;;;6.20;99.90;;;;;;5114010;28;19924;-69
2023/03/29 06:44:49;;;;;;;;;;;6.20;99.90;;;;;;5096590;28;19923;-70
2023/03/29 06:47:16;;;;;;;;;;;6.20;99.90;;;;;;5113640;28;19923;-71
2023/03/29 06:49:41;;;;;;;;;;;6.20;99.90;;;;;;5114000;28;19924;-70
2023/03/29 06:52:07;;;;;;;;;;;6.20;99.90;;;;;;5114111;28;20032;-70
2023/03/29 06:54:33;;;;;;;;;;;6.20;99.90;;;;;;5114050;28;19924;-70
2023/03/29 06:56:59;;;;;;;;;;;6.30;99.90;;;;;;5096201;28;19931;-69
2023/03/29 06:59:25;;;;;;;;;;;6.30;99.90;;;;;;5095229;28;19923;-69
2023/03/29 07:01:54;;;;;;;;;;;6.40;99.90;;;;;;5095792;28;20010;-68
2023/03/29 07:04:21;;;;;;;;;;;6.50;99.90;;;;;;5114294;28;19924;-69
2023/03/29 07:07:00;;;;;;;;;;;6.70;99.90;;;;;;5113848;28;20323;-69
2023/03/29 07:09:29;;;;;;;;;;;6.90;99.90;;;;;;5081192;28;20357;-71
2023/03/29 07:11:55;;;;;;;;;;;7.00;99.90;;;;;;5113526;28;19981;-71
2023/03/29 07:14:21;;;;;;;;;;;7.20;99.90;;;;;;5114395;28;20002;-70
2023/03/29 07:16:47;;;;;;;;;;;7.70;99.90;;;;;;5113732;28;20450;-70
2023/03/29 07:19:14;;;;;;;;;;;8.10;99.90;;;;;;5114105;28;19923;-70
2023/03/29 07:21:39;;;;;;;;;;;8.10;99.90;;;;;;5113382;28;19933;-71
2023/03/29 07:24:05;;;;;;;;;;;8.10;99.90;;;;;;5114000;28;20036;-70
2023/03/29 07:26:31;;;;;;;;;;;8.30;99.90;;;;;;5113487;28;19931;-72
2023/03/29 07:28:57;;;;;;;;;;;8.40;99.90;;;;;;5096262;28;19927;-72
2023/03/29 07:31:23;;;;;;;;;;;8.40;99.90;;;;;;5078803;28;20231;-72
2023/03/29 07:33:51;;;;;;;;;;;8.20;99.90;;;;;;5113483;28;20014;-72
2023/03/29 07:36:17;;;;;;;;;;;8.20;99.90;;;;;;5078741;28;20381;-71
2023/03/29 07:38:42;;;;;;;;;;;8.00;99.90;;;;;;5113603;28;20006;-72
2023/03/29 07:41:08;;;;;;;;;;;7.90;99.90;;;;;;5095381;28;19931;-72
2023/03/29 07:43:34;;;;;;;;;;;7.70;99.90;;;;;;5113316;28;19924;-71
2023/03/29 07:46:00;;;;;;;;;;;7.60;99.90;;;;;;5095690;28;19924;-71
2023/03/29 07:48:26;;;;;;;;;;;7.60;99.90;;;;;;5113626;28;19923;-71
2023/03/29 07:50:52;;;;;;;;;;;7.50;99.90;;;;;;5078328;28;20154;-71
2023/03/29 07:53:17;;;;;;;;;;;7.50;99.90;;;;;;5113356;28;19924;-72
2023/03/29 07:55:46;;;;;;;;;;;7.40;99.90;;;;;;5112990;28;19931;-71
2023/03/29 07:58:12;;;;;;;;;;;7.40;99.90;;;;;;5113348;28;19924;-70
2023/03/29 08:00:38;;;;;;;;;;;7.50;99.90;;;;;;5094931;28;20284;-71
2023/03/29 08:03:03;;;;;;;;;;;7.50;99.90;;;;;;5078323;28;19924;-71
2023/03/29 08:05:29;;;;;;;;;;;7.50;99.90;;;;;;5094906;28;19973;-70
2023/03/29 08:07:55;;;;;;;;;;;7.60;99.90;;;;;;5095002;28;19924;-70
2023/03/29 08:10:21;;;;;;;;;;;7.90;99.90;;;;;;5094873;28;19967;-72
2023/03/29 08:12:47;;;;;;;;;;;8.10;99.90;;;;;;5094335;28;20007;-71
2023/03/29 08:15:13;;;;;;;;;;;8.30;99.90;;;;;;5112961;28;19931;-70
2023/03/29 08:17:40;;;;;;;;;;;8.40;99.90;;;;;;5094751;28;20014;-72
2023/03/29 08:20:08;;;;;;;;;;;8.40;99.90;;;;;;5094785;28;19924;-69
2023/03/29 08:22:34;;;;;;;;;;;8.40;99.90;;;;;;5094657;28;20368;-70
2023/03/29 08:25:00;;;;;;;;;;;8.40;99.90;;;;;;5094104;28;20013;-69
2023/03/29 08:27:26;;;;;;;;;;;8.30;99.90;;;;;;5094680;28;19932;-69
2023/03/29 08:29:51;;;;;;;;;;;8.30;99.90;;;;;;5112521;28;20441;-70
2023/03/29 08:32:17;;;;;;;;;;;8.30;99.90;;;;;;5112790;28;19924;-69
2023/03/29 08:34:42;;;;;;;;;;;8.40;99.90;;;;;;5112418;28;19983;-71
2023/03/29 08:37:08;;;;;;;;;;;8.70;99.90;;;;;;5094988;28;20020;-70
2023/03/29 08:39:34;;;;;;;;;;;9.10;99.90;;;;;;5112839;28;19923;-69
2023/03/29 08:42:15;;;;;;;;;;;9.30;99.90;;;;;;5112520;28;19924;-68
2023/03/29 08:45:03;;;;;;;;;;;9.30;99.90;;;;;;5112681;28;19931;-68
2023/03/29 08:47:35;;;;;;;;;;;9.30;99.90;;;;;;5094427;28;19979;-68
2023/03/29 08:50:01;;;;;;;;;;;9.20;99.90;;;;;;5094405;28;19928;-68
2023/03/29 08:52:26;;;;;;;;;;;9.20;99.90;;;;;;5112733;28;19930;-69
2023/03/29 08:54:54;;;;;;;;;;;9.40;99.90;;;;;;5094083;28;20273;-69
2023/03/29 08:57:22;;;;;;;;;;;9.60;99.90;;;;;;5112738;28;20327;-68
2023/03/29 08:59:50;;;;;;;;;;;9.80;99.90;;;;;;5077588;28;19973;-69
2023/03/29 09:02:19;;;;;;;;;;;10.10;99.90;;;;;;5112602;28;19924;-68
2023/03/29 09:04:47;;;;;;;;;;;10.20;99.90;;;;;;5077635;28;20261;-69
2023/03/29 09:07:13;;;;;;;;;;;10.10;99.90;;;;;;5112752;28;19935;-69
2023/03/29 09:09:41;;;;;;;;;;;10.00;99.90;;;;;;5112532;28;19923;-67
2023/03/29 09:12:09;;;;;;;;;;;10.00;99.90;;;;;;5111788;28;20331;-65
2023/03/29 09:14:45;;;;;;;;;;;10.00;99.90;;;;;;5094202;28;19931;-65
2023/03/29 09:17:22;;;;;;;;;;;10.20;99.90;;;;;;5093919;28;19920;-65
2023/03/29 09:19:53;;;;;;;;;;;10.30;99.90;;;;;;5112211;28;19982;-65
2023/03/29 09:22:57;;;;;;;;;;;10.30;99.90;;;;;;5113592;28;20296;-66
2023/03/29 09:25:26;;;;;;;;;;;10.40;99.90;;;;;;5013367;28;19925;-66
2023/03/29 09:27:51;;;;;;;;;;;10.50;99.90;;;;;;5013203;28;20335;-68
2023/03/29 09:30:23;;;;;;;;;;;10.60;99.90;;;;;;5062778;28;19924;-66
2023/03/29 09:32:51;;;;;;;;;;;10.60;99.90;;;;;;5098177;28;19924;-65
2023/03/29 09:35:21;;;;;;;;;;;10.60;99.90;;;;;;5080902;28;19928;-66
2023/03/29 09:37:49;;;;;;;;;;;10.60;99.90;;;;;;5115937;28;19930;-66
2023/03/29 09:40:16;;;;;;;;;;;10.40;99.90;;;;;;5115530;28;19927;-66
2023/03/29 09:42:43;;;;;;;;;;;10.40;99.90;;;;;;5116067;28;20014;-66
2023/03/29 09:45:08;;;;;;;;;;;10.40;99.90;;;;;;5115795;28;19931;-66
2023/03/29 09:47:37;;;;;;;;;;;10.50;99.90;;;;;;5115982;28;20273;-66
2023/03/29 09:50:12;;;;;;;;;;;10.60;99.90;;;;;;5115632;28;19928;-66
2023/03/29 09:52:38;;;;;;;;;;;10.70;99.90;;;;;;5116050;28;20293;-67
2023/03/29 09:55:05;;;;;;;;;;;10.80;99.90;;;;;;5115579;28;19924;-66
2023/03/29 09:57:31;;;;;;;;;;;10.80;99.90;;;;;;5080878;28;19986;-67
2023/03/29 09:59:57;;;;;;;;;;;10.80;99.90;;;;;;5115667;28;20011;-67
2023/03/29 10:02:23;;;;;;;;;;;10.70;99.90;;;;;;5115782;28;19924;-66
2023/03/29 10:04:57;;;;;;;;;;;10.70;99.90;;;;;;5115591;28;20006;-66
2023/03/29 10:07:32;;;;;;;;;;;10.70;99.90;;;;;;5080905;28;19972;-66
2023/03/29 10:09:59;;;;;;;;;;;10.70;99.90;;;;;;5115504;28;19924;-66
2023/03/29 10:12:24;;;;;;;;;;;10.80;99.90;;;;;;5115325;28;19931;-66
2023/03/29 10:14:52;;;;;;;;;;;10.80;99.90;;;;;;5115427;28;20487;-66
2023/03/29 10:17:20;;;;;;;;;;;10.80;99.90;;;;;;5115089;28;19923;-66
2023/03/29 10:19:48;;;;;;;;;;;10.80;99.90;;;;;;5115002;28;20381;-67
2023/03/29 10:22:18;;;;;;;;;;;10.80;99.90;;;;;;5112462;28;19931;-67
2023/03/29 10:24:51;;;;;;;;;;;10.80;99.90;;;;;;5113678;28;20384;-66
2023/03/29 10:27:24;;;;;;;;;;;10.80;99.90;;;;;;5096786;28;19923;-66
2023/03/29 10:29:50;;;;;;;;;;;10.80;99.90;;;;;;5115176;28;19928;-66
2023/03/29 10:32:34;;;;;;;;;;;10.80;99.90;;;;;;5112407;28;19947;-67
2023/03/29 10:35:06;;;;;;;;;;;10.80;99.90;;;;;;5111501;28;19928;-66
2023/03/29 10:37:32;;;;;;;;;;;10.80;99.90;;;;;;5113907;28;19971;-66
2023/03/29 10:39:57;;;;;;;;;;;10.80;99.90;;;;;;5114868;28;19967;-66
2023/03/29 10:42:24;;;;;;;;;;;10.70;99.90;;;;;;5095581;28;19920;-66
2023/03/29 10:44:57;;;;;;;;;;;10.70;99.90;;;;;;5114641;28;19927;-67
2023/03/29 10:47:22;;;;;;;;;;;10.70;99.90;;;;;;5115026;28;19928;-66
2023/03/29 10:49:49;;;;;;;;;;;10.80;99.90;;;;;;5096797;28;20391;-65
2023/03/29 10:52:16;;;;;;;;;;;10.90;99.90;;;;;;5114236;28;19924;-67
2023/03/29 10:54:42;;;;;;;;;;;11.00;99.90;;;;;;5114228;28;20498;-67
2023/03/29 10:57:09;;;;;;;;;;;11.10;99.90;;;;;;5096164;28;20339;-69
2023/03/29 10:59:38;;;;;;;;;;;11.20;99.90;;;;;;5096692;28;19975;-67
2023/03/29 11:02:12;;;;;;;;;;;11.40;99.90;;;;;;5114571;28;20284;-65
2023/03/29 11:04:44;;;;;;;;;;;11.40;99.90;;;;;;5114432;28;19924;-68
2023/03/29 11:07:28;;;;;;;;;;;11.50;99.90;;;;;;5114038;28;19924;-69
2023/03/29 11:10:19;;;;;;;;;;;11.60;99.90;;;;;;5114378;28;19924;-68
2023/03/29 11:12:51;;;;;;;;;;;11.70;99.90;;;;;;5079051;28;19946;-66
2023/03/29 11:15:29;;;;;;;;;;;11.70;99.90;;;;;;5095851;28;19972;-66
2023/03/29 11:18:13;;;;;;;;;;;11.90;99.90;;;;;;5114330;28;19924;-67
2023/03/29 11:20:50;;;;;;;;;;;12.00;99.90;;;;;;5114245;28;20284;-66
2023/03/29 11:23:25;;;;;;;;;;;12.20;99.90;;;;;;5095643;28;19958;-67
2023/03/29 11:25:54;;;;;;;;;;;12.40;99.90;;;;;;5114239;28;19923;-66
2023/03/29 11:28:20;;;;;;;;;;;12.60;99.90;;;;;;5114014;28;19979;-67
2023/03/29 11:30:50;;;;;;;;;;;12.60;99.90;;;;;;5114004;28;20421;-66
2023/03/29 11:33:15;;;;;;;;;;;12.70;99.90;;;;;;5095365;28;19924;-67
2023/03/29 11:36:10;;;;;;;;;;;12.80;99.90;;;;;;5113945;28;20281;-66
2023/03/29 11:38:35;;;;;;;;;;;12.80;99.90;;;;;;5056978;28;19926;-66
2023/03/29 11:41:27;;;;;;;;;;;12.90;99.90;;;;;;5113952;28;19924;-65
2023/03/29 11:44:01;;;;;;;;;;;13.00;99.90;;;;;;5108440;28;20266;-66
2023/03/29 11:46:36;;;;;;;;;;;13.00;99.90;;;;;;5113098;28;19977;-67
2023/03/29 11:49:03;;;;;;;;;;;13.00;99.90;;;;;;5113587;28;19928;-65
2023/03/29 11:51:34;;;;;;;;;;;13.00;99.90;;;;;;5095385;28;19970;-66
2023/03/29 11:54:23;;;;;;;;;;;13.00;99.90;;;;;;5113494;28;19934;-65
2023/03/29 11:57:00;;;;;;;;;;;12.90;99.90;;;;;;5082053;28;19924;-65
2023/03/29 11:59:32;;;;;;;;;;;13.00;99.90;;;;;;5113247;28;19924;-65
2023/03/29 12:02:08;;;;;;;;;;;12.90;99.90;;;;;;5095523;28;19986;-66
2023/03/29 12:04:37;;;;;;;;;;;13.00;99.90;;;;;;5113185;28;19924;-66
2023/03/29 12:07:09;;;;;;;;;;;12.90;99.90;;;;;;5095222;28;19972;-65
2023/03/29 12:09:35;;;;;;;;;;;12.90;99.90;;;;;;5094675;28;20370;-66
2023/03/29 12:12:17;;;;;;;;;;;13.00;99.90;;;;;;5113083;28;19927;-65
2023/03/29 12:14:42;;;;;;;;;;;13.00;99.90;;;;;;5094844;28;19927;-65
2023/03/29 12:17:11;;;;;;;;;;;13.10;99.90;;;;;;5113104;28;19923;-64
2023/03/29 12:19:41;;;;;;;;;;;13.10;99.90;;;;;;5112860;28;19924;-65
2023/03/29 12:22:07;;;;;;;;;;;13.20;99.90;;;;;;5095120;28;19924;-67
2023/03/29 12:24:35;;;;;;;;;;;13.30;99.90;;;;;;5112571;28;19930;-66
2023/03/29 12:27:03;;;;;;;;;;;13.40;99.90;;;;;;5112908;28;20282;-66
2023/03/29 12:29:29;;;;;;;;;;;13.50;99.90;;;;;;5112715;28;20085;-65
2023/03/29 12:31:55;;;;;;;;;;;13.50;99.90;;;;;;5094994;28;20058;-66
2023/03/29 12:34:44;;;;;;;;;;;13.60;99.90;;;;;;5113107;28;19931;-66
2023/03/29 12:37:09;;;;;;;;;;;13.60;99.90;;;;;;5081158;28;19988;-65
2023/03/29 12:39:35;;;;;;;;;;;13.70;99.90;;;;;;5111787;28;20373;-66
2023/03/29 12:42:20;;;;;;;;;;;13.70;99.90;;;;;;5112546;28;20022;-66
2023/03/29 12:44:55;;;;;;;;;;;13.70;99.90;;;;;;5094154;28;19927;-66
2023/03/29 12:47:25;;;;;;;;;;;13.60;99.90;;;;;;5112454;28;19935;-64
2023/03/29 12:49:53;;;;;;;;;;;13.70;99.90;;;;;;5112169;28;19947;-66
2023/03/29 12:52:27;;;;;;;;;;;13.70;99.90;;;;;;5112277;28;20446;-65
2023/03/29 12:54:54;;;;;;;;;;;13.80;99.90;;;;;;5077538;28;19946;-65
2023/03/29 12:57:24;;;;;;;;;;;13.90;99.90;;;;;;5111671;28;19924;-67
2023/03/29 12:59:51;;;;;;;;;;;14.00;99.90;;;;;;5112238;28;19931;-66
2023/03/29 13:02:16;;;;;;;;;;;14.00;99.90;;;;;;5112378;28;20278;-66
2023/03/29 13:04:45;;;;;;;;;;;14.00;99.90;;;;;;5094177;28;19934;-66
2023/03/29 13:07:26;;;;;;;;;;;14.00;99.90;;;;;;5112777;28;19924;-65
2023/03/29 13:09:51;;;;;;;;;;;13.90;99.90;;;;;;5112162;28;19997;-65
2023/03/29 13:12:26;;;;;;;;;;;13.90;99.90;;;;;;5112452;28;20372;-66
2023/03/29 13:14:56;;;;;;;;;;;13.90;99.90;;;;;;5112051;28;19924;-66
2023/03/29 13:17:25;;;;;;;;;;;13.90;99.90;;;;;;5112511;28;20018;-64
2023/03/29 13:19:59;;;;;;;;;;;13.90;99.90;;;;;;5111957;28;19924;-66
2023/03/29 13:22:31;;;;;;;;;;;13.90;99.90;;;;;;5094365;28;19924;-65
2023/03/29 13:25:15;;;;;;;;;;;13.90;99.90;;;;;;5111993;28;19924;-65
2023/03/29 13:27:48;;;;;;;;;;;13.90;99.90;;;;;;5112033;28;19924;-66
2023/03/29 13:30:24;;;;;;;;;;;13.90;99.90;;;;;;5112230;28;19923;-66
2023/03/29 13:33:04;;;;;;;;;;;13.90;99.90;;;;;;5111669;28;19924;-66
2023/03/29 13:35:35;;;;;;;;;;;13.80;99.90;;;;;;5112250;28;19992;-66
2023/03/29 13:38:07;;;;;;;;;;;13.80;99.90;;;;;;5112301;28;19930;-66
2023/03/29 13:40:38;;;;;;;;;;;13.80;99.90;;;;;;5112153;28;19924;-66
2023/03/29 13:43:19;;;;;;;;;;;13.80;99.90;;;;;;5112075;28;20350;-66
2023/03/29 13:45:56;;;;;;;;;;;13.80;99.90;;;;;;5111934;28;19971;-65
2023/03/29 13:48:47;;;;;;;;;;;13.80;99.90;;;;;;5094262;28;19927;-65
2023/03/29 13:51:16;;;;;;;;;;;13.80;99.90;;;;;;5111893;28;20371;-65
2023/03/29 13:53:44;;;;;;;;;;;13.80;99.90;;;;;;5076825;28;19971;-66
2023/03/29 13:56:14;;;;;;;;;;;13.80;99.90;;;;;;5111747;28;19977;-67
2023/03/29 13:59:06;;;;;;;;;;;13.90;99.90;;;;;;5093572;28;19924;-68
2023/03/29 14:01:38;;;;;;;;;;;13.90;99.90;;;;;;5106969;28;20331;-67
2023/03/29 14:04:04;;;;;;;;;;;14.00;99.90;;;;;;5111622;28;20072;-66
2023/03/29 14:06:31;;;;;;;;;;;14.00;99.90;;;;;;5093722;28;20449;-66
2023/03/29 14:09:01;;;;;;;;;;;14.10;99.90;;;;;;5113615;28;19985;-66
2023/03/29 14:11:27;;;;;;;;;;;14.10;99.90;;;;;;5115472;28;20014;-66
2023/03/29 14:13:54;;;;;;;;;;;14.20;99.90;;;;;;5115252;28;19970;-67
2023/03/29 14:16:20;;;;;;;;;;;14.20;99.90;;;;;;5115471;28;20297;-66
2023/03/29 14:18:50;;;;;;;;;;;14.20;99.90;;;;;;5115064;28;20008;-66
2023/03/29 14:21:16;;;;;;;;;;;14.20;99.90;;;;;;5097157;28;20373;-66
2023/03/29 14:23:43;;;;;;;;;;;14.30;99.90;;;;;;5115139;28;19935;-69
2023/03/29 14:26:14;;;;;;;;;;;14.30;99.90;;;;;;5097015;28;19923;-66
2023/03/29 14:28:43;;;;;;;;;;;14.30;99.90;;;;;;5097437;28;19931;-66
2023/03/29 14:31:15;;;;;;;;;;;14.40;99.90;;;;;;5115368;28;19923;-66
2023/03/29 14:33:41;;;;;;;;;;;14.40;99.90;;;;;;5097068;28;19923;-67
2023/03/29 14:36:10;;;;;;;;;;;14.40;99.90;;;;;;5096497;28;19931;-67